sensor_id;sensor_type;location;lat;lon;timestamp;P1;durP1;ratioP1;P2;durP2;ratioP2
52888;SDS011;41413;52.770;6.892;2023-08-06T00:00:30;169.60;;;162.25;;
52888;SDS011;41413;52.770;6.892;2023-08-06T00:02:59;173.13;;;165.52;;
52888;SDS011;41413;52.770;6.892;2023-08-06T00:05:26;183.80;;;176.00;;
52888;SDS011;41413;52.770;6.892;2023-08-06T00:07:53;172.82;;;165.50;;
52888;SDS011;41413;52.770;6.892;2023-08-06T00:10:21;181.15;;;173.52;;
52888;SDS011;41413;52.770;6.892;2023-08-06T00:12:47;179.45;;;171.73;;
52888;SDS011;41413;52.770;6.892;2023-08-06T00:15:14;180.02;;;170.98;;
52888;SDS011;41413;52.770;6.892;2023-08-06T00:17:41;183.90;;;175.90;;
52888;SDS011;41413;52.770;6.892;2023-08-06T00:20:08;169.15;;;161.77;;
52888;SDS011;41413;52.770;6.892;2023-08-06T00:22:35;181.80;;;174.10;;
52888;SDS011;41413;52.770;6.892;2023-08-06T00:25:03;171.65;;;164.13;;
52888;SDS011;41413;52.770;6.892;2023-08-06T00:27:31;174.07;;;166.57;;
52888;SDS011;41413;52.770;6.892;2023-08-06T00:29:58;190.75;;;182.57;;
52888;SDS011;41413;52.770;6.892;2023-08-06T00:32:25;186.43;;;178.18;;
52888;SDS011;41413;52.770;6.892;2023-08-06T00:34:52;184.50;;;176.63;;
52888;SDS011;41413;52.770;6.892;2023-08-06T00:37:19;188.32;;;180.23;;
52888;SDS011;41413;52.770;6.892;2023-08-06T00:39:46;170.82;;;163.50;;
52888;SDS011;41413;52.770;6.892;2023-08-06T00:42:12;183.00;;;175.05;;
52888;SDS011;41413;52.770;6.892;2023-08-06T00:44:39;167.07;;;159.93;;
52888;SDS011;41413;52.770;6.892;2023-08-06T00:47:06;183.50;;;175.15;;
52888;SDS011;41413;52.770;6.892;2023-08-06T00:49:35;178.65;;;171.02;;
52888;SDS011;41413;52.770;6.892;2023-08-06T00:52:03;153.57;;;146.77;;
52888;SDS011;41413;52.770;6.892;2023-08-06T00:54:31;163.30;;;156.18;;
52888;SDS011;41413;52.770;6.892;2023-08-06T00:56:58;160.85;;;153.80;;
52888;SDS011;41413;52.770;6.892;2023-08-06T00:59:27;155.75;;;148.93;;
52888;SDS011;41413;52.770;6.892;2023-08-06T01:01:55;182.30;;;174.45;;
52888;SDS011;41413;52.770;6.892;2023-08-06T01:04:22;184.18;;;176.23;;
52888;SDS011;41413;52.770;6.892;2023-08-06T01:07:04;175.65;;;168.07;;
52888;SDS011;41413;52.770;6.892;2023-08-06T01:10:01;168.05;;;160.38;;
52888;SDS011;41413;52.770;6.892;2023-08-06T01:15:54;169.75;;;161.93;;
52888;SDS011;41413;52.770;6.892;2023-08-06T01:18:25;170.57;;;163.18;;
52888;SDS011;41413;52.770;6.892;2023-08-06T01:20:52;158.80;;;151.20;;
52888;SDS011;41413;52.770;6.892;2023-08-06T01:23:19;173.27;;;165.80;;
52888;SDS011;41413;52.770;6.892;2023-08-06T01:26:05;187.45;;;179.32;;
52888;SDS011;41413;52.770;6.892;2023-08-06T01:29:04;180.77;;;172.65;;
52888;SDS011;41413;52.770;6.892;2023-08-06T01:31:38;170.65;;;163.23;;
52888;SDS011;41413;52.770;6.892;2023-08-06T01:34:09;175.30;;;167.77;;
52888;SDS011;41413;52.770;6.892;2023-08-06T01:36:40;181.25;;;173.00;;
52888;SDS011;41413;52.770;6.892;2023-08-06T01:39:08;186.52;;;178.52;;
52888;SDS011;41413;52.770;6.892;2023-08-06T01:41:35;184.95;;;176.73;;
52888;SDS011;41413;52.770;6.892;2023-08-06T01:44:01;169.20;;;161.65;;
52888;SDS011;41413;52.770;6.892;2023-08-06T01:46:28;180.18;;;172.20;;
52888;SDS011;41413;52.770;6.892;2023-08-06T01:48:55;190.15;;;181.85;;
52888;SDS011;41413;52.770;6.892;2023-08-06T01:51:22;163.82;;;156.60;;
52888;SDS011;41413;52.770;6.892;2023-08-06T01:53:48;172.13;;;164.57;;
52888;SDS011;41413;52.770;6.892;2023-08-06T01:56:15;168.18;;;160.73;;
52888;SDS011;41413;52.770;6.892;2023-08-06T01:58:42;174.32;;;166.65;;
52888;SDS011;41413;52.770;6.892;2023-08-06T02:01:09;186.93;;;178.10;;
52888;SDS011;41413;52.770;6.892;2023-08-06T02:03:36;160.30;;;153.13;;
52888;SDS011;41413;52.770;6.892;2023-08-06T02:06:03;171.75;;;164.13;;
52888;SDS011;41413;52.770;6.892;2023-08-06T02:08:29;164.00;;;156.75;;
52888;SDS011;41413;52.770;6.892;2023-08-06T02:10:56;205.02;;;196.05;;
52888;SDS011;41413;52.770;6.892;2023-08-06T02:13:24;168.70;;;161.27;;
52888;SDS011;41413;52.770;6.892;2023-08-06T02:15:51;174.35;;;166.60;;
52888;SDS011;41413;52.770;6.892;2023-08-06T02:18:18;150.88;;;143.85;;
52888;SDS011;41413;52.770;6.892;2023-08-06T02:20:54;177.80;;;169.88;;
52888;SDS011;41413;52.770;6.892;2023-08-06T02:23:22;167.32;;;159.82;;
52888;SDS011;41413;52.770;6.892;2023-08-06T02:25:56;173.30;;;165.35;;
52888;SDS011;41413;52.770;6.892;2023-08-06T02:28:30;170.77;;;163.10;;
52888;SDS011;41413;52.770;6.892;2023-08-06T02:30:57;184.27;;;176.20;;
52888;SDS011;41413;52.770;6.892;2023-08-06T02:33:24;184.02;;;175.80;;
52888;SDS011;41413;52.770;6.892;2023-08-06T02:36:03;170.38;;;162.80;;
52888;SDS011;41413;52.770;6.892;2023-08-06T02:38:31;183.65;;;175.45;;
52888;SDS011;41413;52.770;6.892;2023-08-06T02:40:58;167.40;;;159.73;;
52888;SDS011;41413;52.770;6.892;2023-08-06T02:43:25;178.48;;;170.63;;
52888;SDS011;41413;52.770;6.892;2023-08-06T02:45:51;177.38;;;169.48;;
52888;SDS011;41413;52.770;6.892;2023-08-06T02:48:18;169.10;;;161.43;;
52888;SDS011;41413;52.770;6.892;2023-08-06T02:50:45;188.52;;;179.68;;
52888;SDS011;41413;52.770;6.892;2023-08-06T02:53:12;166.30;;;158.80;;
52888;SDS011;41413;52.770;6.892;2023-08-06T02:55:44;174.13;;;165.90;;
52888;SDS011;41413;52.770;6.892;2023-08-06T02:58:14;164.50;;;157.38;;
52888;SDS011;41413;52.770;6.892;2023-08-06T03:00:41;170.13;;;162.50;;
52888;SDS011;41413;52.770;6.892;2023-08-06T03:03:09;190.05;;;181.65;;
52888;SDS011;41413;52.770;6.892;2023-08-06T03:05:36;172.38;;;164.23;;
52888;SDS011;41413;52.770;6.892;2023-08-06T03:08:02;174.98;;;167.07;;
52888;SDS011;41413;52.770;6.892;2023-08-06T03:10:29;180.70;;;172.80;;
52888;SDS011;41413;52.770;6.892;2023-08-06T03:12:56;196.82;;;187.95;;
52888;SDS011;41413;52.770;6.892;2023-08-06T03:15:23;166.25;;;158.90;;
52888;SDS011;41413;52.770;6.892;2023-08-06T03:17:50;172.15;;;164.48;;
52888;SDS011;41413;52.770;6.892;2023-08-06T03:20:16;193.80;;;185.30;;
52888;SDS011;41413;52.770;6.892;2023-08-06T03:22:43;176.68;;;169.15;;
52888;SDS011;41413;52.770;6.892;2023-08-06T03:25:10;188.15;;;179.93;;
52888;SDS011;41413;52.770;6.892;2023-08-06T03:27:37;175.38;;;167.55;;
52888;SDS011;41413;52.770;6.892;2023-08-06T03:30:04;177.75;;;169.77;;
52888;SDS011;41413;52.770;6.892;2023-08-06T03:32:31;171.45;;;163.85;;
52888;SDS011;41413;52.770;6.892;2023-08-06T03:34:58;181.32;;;173.63;;
52888;SDS011;41413;52.770;6.892;2023-08-06T03:37:25;188.60;;;180.48;;
52888;SDS011;41413;52.770;6.892;2023-08-06T03:39:51;198.18;;;189.20;;
52888;SDS011;41413;52.770;6.892;2023-08-06T03:42:18;182.45;;;174.18;;
52888;SDS011;41413;52.770;6.892;2023-08-06T03:44:45;198.82;;;190.00;;
52888;SDS011;41413;52.770;6.892;2023-08-06T03:47:12;162.68;;;155.18;;
52888;SDS011;41413;52.770;6.892;2023-08-06T03:49:38;191.35;;;182.70;;
52888;SDS011;41413;52.770;6.892;2023-08-06T03:52:05;184.00;;;175.45;;
52888;SDS011;41413;52.770;6.892;2023-08-06T03:54:32;181.30;;;173.43;;
52888;SDS011;41413;52.770;6.892;2023-08-06T03:56:59;171.45;;;163.63;;
52888;SDS011;41413;52.770;6.892;2023-08-06T03:59:26;179.43;;;171.55;;
52888;SDS011;41413;52.770;6.892;2023-08-06T04:01:52;174.35;;;166.50;;
52888;SDS011;41413;52.770;6.892;2023-08-06T04:04:19;189.93;;;181.63;;
52888;SDS011;41413;52.770;6.892;2023-08-06T04:06:46;161.73;;;154.48;;
52888;SDS011;41413;52.770;6.892;2023-08-06T04:09:13;167.27;;;159.85;;
52888;SDS011;41413;52.770;6.892;2023-08-06T04:11:39;171.77;;;163.95;;
52888;SDS011;41413;52.770;6.892;2023-08-06T04:14:06;187.75;;;179.18;;
52888;SDS011;41413;52.770;6.892;2023-08-06T04:16:33;185.57;;;176.98;;
52888;SDS011;41413;52.770;6.892;2023-08-06T04:19:00;171.93;;;164.10;;
52888;SDS011;41413;52.770;6.892;2023-08-06T04:21:26;172.80;;;164.77;;
52888;SDS011;41413;52.770;6.892;2023-08-06T04:23:53;173.45;;;165.52;;
52888;SDS011;41413;52.770;6.892;2023-08-06T04:26:20;166.32;;;158.80;;
52888;SDS011;41413;52.770;6.892;2023-08-06T04:28:46;176.45;;;168.60;;
52888;SDS011;41413;52.770;6.892;2023-08-06T04:31:13;173.43;;;165.38;;
52888;SDS011;41413;52.770;6.892;2023-08-06T04:33:44;171.98;;;164.32;;
52888;SDS011;41413;52.770;6.892;2023-08-06T04:36:11;162.85;;;155.60;;
52888;SDS011;41413;52.770;6.892;2023-08-06T04:38:38;169.50;;;161.82;;
52888;SDS011;41413;52.770;6.892;2023-08-06T04:41:07;194.52;;;185.70;;
52888;SDS011;41413;52.770;6.892;2023-08-06T04:43:34;188.20;;;179.43;;
52888;SDS011;41413;52.770;6.892;2023-08-06T04:46:01;169.00;;;161.35;;
52888;SDS011;41413;52.770;6.892;2023-08-06T04:48:27;174.13;;;166.18;;
52888;SDS011;41413;52.770;6.892;2023-08-06T04:50:54;197.93;;;189.27;;
52888;SDS011;41413;52.770;6.892;2023-08-06T04:53:21;180.45;;;171.82;;
52888;SDS011;41413;52.770;6.892;2023-08-06T04:55:48;192.88;;;184.40;;
52888;SDS011;41413;52.770;6.892;2023-08-06T04:58:14;182.10;;;174.15;;
52888;SDS011;41413;52.770;6.892;2023-08-06T05:00:41;166.15;;;158.77;;
52888;SDS011;41413;52.770;6.892;2023-08-06T05:03:08;189.80;;;181.07;;
52888;SDS011;41413;52.770;6.892;2023-08-06T05:05:35;181.93;;;173.77;;
52888;SDS011;41413;52.770;6.892;2023-08-06T05:08:02;180.90;;;173.05;;
52888;SDS011;41413;52.770;6.892;2023-08-06T05:10:29;167.23;;;159.88;;
52888;SDS011;41413;52.770;6.892;2023-08-06T05:12:55;170.40;;;162.80;;
52888;SDS011;41413;52.770;6.892;2023-08-06T05:15:22;171.05;;;163.38;;
52888;SDS011;41413;52.770;6.892;2023-08-06T05:17:51;174.85;;;166.95;;
52888;SDS011;41413;52.770;6.892;2023-08-06T05:20:18;187.98;;;179.80;;
52888;SDS011;41413;52.770;6.892;2023-08-06T05:22:45;197.65;;;188.68;;
52888;SDS011;41413;52.770;6.892;2023-08-06T05:25:13;173.60;;;165.73;;
52888;SDS011;41413;52.770;6.892;2023-08-06T05:27:40;187.15;;;178.90;;
52888;SDS011;41413;52.770;6.892;2023-08-06T05:30:07;198.18;;;189.27;;
52888;SDS011;41413;52.770;6.892;2023-08-06T05:32:35;185.32;;;177.07;;
52888;SDS011;41413;52.770;6.892;2023-08-06T05:35:01;155.93;;;148.85;;
52888;SDS011;41413;52.770;6.892;2023-08-06T05:37:29;162.95;;;155.52;;
52888;SDS011;41413;52.770;6.892;2023-08-06T05:39:55;177.18;;;169.32;;
52888;SDS011;41413;52.770;6.892;2023-08-06T05:42:22;176.25;;;168.00;;
52888;SDS011;41413;52.770;6.892;2023-08-06T05:44:49;194.05;;;185.20;;
52888;SDS011;41413;52.770;6.892;2023-08-06T05:47:15;184.75;;;176.20;;
52888;SDS011;41413;52.770;6.892;2023-08-06T05:49:42;172.23;;;164.32;;
52888;SDS011;41413;52.770;6.892;2023-08-06T05:52:09;172.98;;;164.80;;
52888;SDS011;41413;52.770;6.892;2023-08-06T05:54:36;171.57;;;163.35;;
52888;SDS011;41413;52.770;6.892;2023-08-06T05:57:03;165.85;;;158.25;;
52888;SDS011;41413;52.770;6.892;2023-08-06T05:59:30;166.90;;;159.07;;
52888;SDS011;41413;52.770;6.892;2023-08-06T06:01:57;178.15;;;170.00;;
52888;SDS011;41413;52.770;6.892;2023-08-06T06:04:25;169.18;;;161.32;;
52888;SDS011;41413;52.770;6.892;2023-08-06T06:06:51;176.80;;;168.98;;
52888;SDS011;41413;52.770;6.892;2023-08-06T06:09:18;177.82;;;169.77;;
52888;SDS011;41413;52.770;6.892;2023-08-06T06:11:45;151.70;;;144.73;;
52888;SDS011;41413;52.770;6.892;2023-08-06T06:14:12;175.45;;;167.68;;
52888;SDS011;41413;52.770;6.892;2023-08-06T06:16:38;169.63;;;162.05;;
52888;SDS011;41413;52.770;6.892;2023-08-06T06:19:05;162.85;;;155.35;;
52888;SDS011;41413;52.770;6.892;2023-08-06T06:21:32;168.70;;;160.90;;
52888;SDS011;41413;52.770;6.892;2023-08-06T06:23:59;173.95;;;166.38;;
52888;SDS011;41413;52.770;6.892;2023-08-06T06:26:25;151.35;;;144.40;;
52888;SDS011;41413;52.770;6.892;2023-08-06T06:28:52;172.82;;;165.23;;
52888;SDS011;41413;52.770;6.892;2023-08-06T06:31:19;167.30;;;159.88;;
52888;SDS011;41413;52.770;6.892;2023-08-06T06:33:46;178.43;;;170.57;;
52888;SDS011;41413;52.770;6.892;2023-08-06T06:36:13;180.13;;;172.15;;
52888;SDS011;41413;52.770;6.892;2023-08-06T06:38:40;174.82;;;167.15;;
52888;SDS011;41413;52.770;6.892;2023-08-06T06:41:06;158.23;;;151.35;;
52888;SDS011;41413;52.770;6.892;2023-08-06T06:43:33;167.82;;;160.15;;
52888;SDS011;41413;52.770;6.892;2023-08-06T06:46:00;152.05;;;144.90;;
52888;SDS011;41413;52.770;6.892;2023-08-06T06:48:28;165.85;;;158.48;;
52888;SDS011;41413;52.770;6.892;2023-08-06T06:50:56;182.02;;;174.32;;
52888;SDS011;41413;52.770;6.892;2023-08-06T06:53:22;173.75;;;166.18;;
52888;SDS011;41413;52.770;6.892;2023-08-06T06:55:54;169.82;;;162.25;;
52888;SDS011;41413;52.770;6.892;2023-08-06T06:58:21;161.45;;;153.82;;
52888;SDS011;41413;52.770;6.892;2023-08-06T07:00:48;170.82;;;163.20;;
52888;SDS011;41413;52.770;6.892;2023-08-06T07:03:15;179.50;;;171.65;;
52888;SDS011;41413;52.770;6.892;2023-08-06T07:05:42;182.07;;;174.40;;
52888;SDS011;41413;52.770;6.892;2023-08-06T07:08:10;183.80;;;175.82;;
52888;SDS011;41413;52.770;6.892;2023-08-06T07:10:37;160.38;;;153.30;;
52888;SDS011;41413;52.770;6.892;2023-08-06T07:13:07;163.57;;;156.32;;
52888;SDS011;41413;52.770;6.892;2023-08-06T07:15:34;169.13;;;161.90;;
52888;SDS011;41413;52.770;6.892;2023-08-06T07:18:01;174.27;;;166.63;;
52888;SDS011;41413;52.770;6.892;2023-08-06T07:20:28;150.55;;;143.95;;
52888;SDS011;41413;52.770;6.892;2023-08-06T07:22:58;178.27;;;170.48;;
52888;SDS011;41413;52.770;6.892;2023-08-06T07:25:25;176.93;;;169.32;;
52888;SDS011;41413;52.770;6.892;2023-08-06T07:27:52;181.38;;;173.48;;
52888;SDS011;41413;52.770;6.892;2023-08-06T07:30:18;158.13;;;150.85;;
52888;SDS011;41413;52.770;6.892;2023-08-06T07:32:45;174.35;;;166.43;;
52888;SDS011;41413;52.770;6.892;2023-08-06T07:35:12;162.50;;;155.55;;
52888;SDS011;41413;52.770;6.892;2023-08-06T07:37:40;182.25;;;174.52;;
52888;SDS011;41413;52.770;6.892;2023-08-06T07:40:07;170.13;;;162.65;;
52888;SDS011;41413;52.770;6.892;2023-08-06T07:42:35;178.00;;;170.05;;
52888;SDS011;41413;52.770;6.892;2023-08-06T07:45:02;174.35;;;166.90;;
52888;SDS011;41413;52.770;6.892;2023-08-06T07:47:29;163.77;;;156.65;;
52888;SDS011;41413;52.770;6.892;2023-08-06T07:49:56;175.93;;;168.32;;
52888;SDS011;41413;52.770;6.892;2023-08-06T07:52:22;164.00;;;156.90;;
52888;SDS011;41413;52.770;6.892;2023-08-06T07:54:49;173.85;;;166.43;;
52888;SDS011;41413;52.770;6.892;2023-08-06T07:57:16;151.18;;;144.57;;
52888;SDS011;41413;52.770;6.892;2023-08-06T07:59:43;154.18;;;147.48;;
52888;SDS011;41413;52.770;6.892;2023-08-06T08:02:10;159.75;;;152.88;;
52888;SDS011;41413;52.770;6.892;2023-08-06T08:04:36;150.13;;;143.45;;
52888;SDS011;41413;52.770;6.892;2023-08-06T08:07:03;180.23;;;172.23;;
52888;SDS011;41413;52.770;6.892;2023-08-06T08:09:30;162.98;;;155.80;;
52888;SDS011;41413;52.770;6.892;2023-08-06T08:11:57;163.57;;;156.75;;
52888;SDS011;41413;52.770;6.892;2023-08-06T08:14:27;154.98;;;148.35;;
52888;SDS011;41413;52.770;6.892;2023-08-06T08:16:55;174.60;;;167.30;;
52888;SDS011;41413;52.770;6.892;2023-08-06T08:19:22;164.48;;;157.27;;
52888;SDS011;41413;52.770;6.892;2023-08-06T08:21:49;142.80;;;136.73;;
52888;SDS011;41413;52.770;6.892;2023-08-06T08:24:15;161.70;;;154.82;;
52888;SDS011;41413;52.770;6.892;2023-08-06T08:26:45;150.57;;;144.07;;
52888;SDS011;41413;52.770;6.892;2023-08-06T08:29:12;165.05;;;158.20;;
52888;SDS011;41413;52.770;6.892;2023-08-06T08:31:39;134.98;;;129.30;;
52888;SDS011;41413;52.770;6.892;2023-08-06T08:34:06;147.10;;;140.65;;
52888;SDS011;41413;52.770;6.892;2023-08-06T08:36:32;137.70;;;131.73;;
52888;SDS011;41413;52.770;6.892;2023-08-06T08:38:59;141.63;;;135.57;;
52888;SDS011;41413;52.770;6.892;2023-08-06T08:41:29;126.32;;;120.45;;
52888;SDS011;41413;52.770;6.892;2023-08-06T08:43:58;150.52;;;144.15;;
52888;SDS011;41413;52.770;6.892;2023-08-06T08:46:26;132.15;;;126.38;;
52888;SDS011;41413;52.770;6.892;2023-08-06T08:48:58;137.48;;;131.27;;
52888;SDS011;41413;52.770;6.892;2023-08-06T08:51:29;139.43;;;133.63;;
52888;SDS011;41413;52.770;6.892;2023-08-06T08:53:57;134.57;;;128.88;;
52888;SDS011;41413;52.770;6.892;2023-08-06T08:56:24;147.27;;;140.68;;
52888;SDS011;41413;52.770;6.892;2023-08-06T08:58:51;109.47;;;104.55;;
52888;SDS011;41413;52.770;6.892;2023-08-06T09:01:20;112.80;;;107.85;;
52888;SDS011;41413;52.770;6.892;2023-08-06T09:03:48;103.68;;;98.95;;
52888;SDS011;41413;52.770;6.892;2023-08-06T09:06:16;120.18;;;115.05;;
52888;SDS011;41413;52.770;6.892;2023-08-06T09:08:51;112.80;;;107.80;;
52888;SDS011;41413;52.770;6.892;2023-08-06T09:11:26;106.93;;;102.47;;
52888;SDS011;41413;52.770;6.892;2023-08-06T09:13:53;101.63;;;97.30;;
52888;SDS011;41413;52.770;6.892;2023-08-06T09:16:21;85.10;;;81.60;;
52888;SDS011;41413;52.770;6.892;2023-08-06T09:18:47;81.10;;;77.35;;
52888;SDS011;41413;52.770;6.892;2023-08-06T09:21:14;95.50;;;91.53;;
52888;SDS011;41413;52.770;6.892;2023-08-06T09:23:44;88.80;;;85.10;;
52888;SDS011;41413;52.770;6.892;2023-08-06T09:26:11;82.32;;;78.63;;
52888;SDS011;41413;52.770;6.892;2023-08-06T09:28:42;88.90;;;85.13;;
52888;SDS011;41413;52.770;6.892;2023-08-06T09:31:09;95.70;;;91.75;;
52888;SDS011;41413;52.770;6.892;2023-08-06T09:33:37;85.45;;;81.78;;
52888;SDS011;41413;52.770;6.892;2023-08-06T09:36:08;77.20;;;73.75;;
52888;SDS011;41413;52.770;6.892;2023-08-06T09:38:39;82.57;;;79.15;;
52888;SDS011;41413;52.770;6.892;2023-08-06T09:41:06;88.55;;;84.80;;
52888;SDS011;41413;52.770;6.892;2023-08-06T09:43:43;84.38;;;80.90;;
52888;SDS011;41413;52.770;6.892;2023-08-06T09:46:13;85.53;;;81.90;;
52888;SDS011;41413;52.770;6.892;2023-08-06T09:48:46;75.68;;;72.32;;
52888;SDS011;41413;52.770;6.892;2023-08-06T09:51:13;77.78;;;74.43;;
52888;SDS011;41413;52.770;6.892;2023-08-06T09:53:41;76.70;;;73.35;;
52888;SDS011;41413;52.770;6.892;2023-08-06T09:56:09;80.43;;;77.22;;
52888;SDS011;41413;52.770;6.892;2023-08-06T09:58:38;76.80;;;73.57;;
52888;SDS011;41413;52.770;6.892;2023-08-06T10:01:05;74.82;;;71.55;;
52888;SDS011;41413;52.770;6.892;2023-08-06T10:03:33;78.10;;;74.47;;
52888;SDS011;41413;52.770;6.892;2023-08-06T10:06:00;72.18;;;68.90;;
52888;SDS011;41413;52.770;6.892;2023-08-06T10:08:33;88.43;;;84.70;;
52888;SDS011;41413;52.770;6.892;2023-08-06T10:11:00;77.95;;;74.65;;
52888;SDS011;41413;52.770;6.892;2023-08-06T10:13:30;82.30;;;78.88;;
52888;SDS011;41413;52.770;6.892;2023-08-06T10:15:58;80.45;;;77.15;;
52888;SDS011;41413;52.770;6.892;2023-08-06T10:18:27;75.65;;;72.47;;
52888;SDS011;41413;52.770;6.892;2023-08-06T10:20:54;76.50;;;72.97;;
52888;SDS011;41413;52.770;6.892;2023-08-06T10:23:21;75.50;;;72.15;;
52888;SDS011;41413;52.770;6.892;2023-08-06T10:25:59;84.07;;;80.55;;
52888;SDS011;41413;52.770;6.892;2023-08-06T10:28:33;71.85;;;68.95;;
52888;SDS011;41413;52.770;6.892;2023-08-06T10:31:03;84.32;;;80.82;;
52888;SDS011;41413;52.770;6.892;2023-08-06T10:33:42;86.68;;;83.05;;
52888;SDS011;41413;52.770;6.892;2023-08-06T10:36:10;72.32;;;69.07;;
52888;SDS011;41413;52.770;6.892;2023-08-06T10:38:44;73.55;;;70.55;;
52888;SDS011;41413;52.770;6.892;2023-08-06T10:41:16;71.40;;;68.45;;
52888;SDS011;41413;52.770;6.892;2023-08-06T10:43:49;51.35;;;49.33;;
52888;SDS011;41413;52.770;6.892;2023-08-06T10:46:23;80.65;;;77.22;;
52888;SDS011;41413;52.770;6.892;2023-08-06T10:48:53;77.65;;;74.43;;
52888;SDS011;41413;52.770;6.892;2023-08-06T10:51:20;74.38;;;71.47;;
52888;SDS011;41413;52.770;6.892;2023-08-06T10:53:47;68.70;;;65.95;;
52888;SDS011;41413;52.770;6.892;2023-08-06T10:56:16;79.40;;;76.45;;
52888;SDS011;41413;52.770;6.892;2023-08-06T10:58:48;68.72;;;66.07;;
52888;SDS011;41413;52.770;6.892;2023-08-06T11:01:17;66.88;;;64.25;;
52888;SDS011;41413;52.770;6.892;2023-08-06T11:03:45;73.20;;;70.53;;
52888;SDS011;41413;52.770;6.892;2023-08-06T11:06:19;82.00;;;78.78;;
52888;SDS011;41413;52.770;6.892;2023-08-06T11:08:50;88.57;;;85.33;;
52888;SDS011;41413;52.770;6.892;2023-08-06T11:11:18;66.93;;;64.40;;
52888;SDS011;41413;52.770;6.892;2023-08-06T11:13:46;73.47;;;70.57;;
52888;SDS011;41413;52.770;6.892;2023-08-06T11:16:14;69.53;;;66.88;;
52888;SDS011;41413;52.770;6.892;2023-08-06T11:18:43;65.68;;;62.88;;
52888;SDS011;41413;52.770;6.892;2023-08-06T11:21:10;70.07;;;66.85;;
52888;SDS011;41413;52.770;6.892;2023-08-06T11:23:38;78.72;;;75.78;;
52888;SDS011;41413;52.770;6.892;2023-08-06T11:26:05;77.72;;;74.43;;
52888;SDS011;41413;52.770;6.892;2023-08-06T11:28:32;83.30;;;80.07;;
52888;SDS011;41413;52.770;6.892;2023-08-06T11:30:59;86.80;;;83.25;;
52888;SDS011;41413;52.770;6.892;2023-08-06T11:33:28;84.35;;;81.15;;
52888;SDS011;41413;52.770;6.892;2023-08-06T11:35:55;86.60;;;83.20;;
52888;SDS011;41413;52.770;6.892;2023-08-06T11:38:25;98.03;;;93.93;;
52888;SDS011;41413;52.770;6.892;2023-08-06T11:40:53;87.47;;;83.85;;
52888;SDS011;41413;52.770;6.892;2023-08-06T11:43:20;77.03;;;73.95;;
52888;SDS011;41413;52.770;6.892;2023-08-06T11:45:49;91.20;;;87.63;;
52888;SDS011;41413;52.770;6.892;2023-08-06T11:48:17;79.53;;;76.53;;
52888;SDS011;41413;52.770;6.892;2023-08-06T11:50:44;84.68;;;81.13;;
52888;SDS011;41413;52.770;6.892;2023-08-06T11:53:12;80.03;;;77.03;;
52888;SDS011;41413;52.770;6.892;2023-08-06T11:55:42;81.60;;;78.50;;
52888;SDS011;41413;52.770;6.892;2023-08-06T11:58:10;71.65;;;68.78;;
52888;SDS011;41413;52.770;6.892;2023-08-06T12:00:42;69.13;;;66.40;;
52888;SDS011;41413;52.770;6.892;2023-08-06T12:03:09;74.43;;;71.13;;
52888;SDS011;41413;52.770;6.892;2023-08-06T12:05:37;93.75;;;90.05;;
52888;SDS011;41413;52.770;6.892;2023-08-06T12:08:05;103.75;;;99.13;;
52888;SDS011;41413;52.770;6.892;2023-08-06T12:10:32;95.43;;;91.70;;
52888;SDS011;41413;52.770;6.892;2023-08-06T12:12:59;102.05;;;98.00;;
52888;SDS011;41413;52.770;6.892;2023-08-06T12:15:26;105.82;;;101.75;;
52888;SDS011;41413;52.770;6.892;2023-08-06T12:17:55;115.38;;;110.72;;
52888;SDS011;41413;52.770;6.892;2023-08-06T12:20:22;120.18;;;115.05;;
52888;SDS011;41413;52.770;6.892;2023-08-06T12:22:48;117.88;;;113.30;;
52888;SDS011;41413;52.770;6.892;2023-08-06T12:25:15;115.47;;;110.97;;
52888;SDS011;41413;52.770;6.892;2023-08-06T12:27:43;94.25;;;90.47;;
52888;SDS011;41413;52.770;6.892;2023-08-06T12:30:10;92.93;;;89.25;;
52888;SDS011;41413;52.770;6.892;2023-08-06T12:32:38;93.57;;;89.80;;
52888;SDS011;41413;52.770;6.892;2023-08-06T12:35:05;115.88;;;110.97;;
52888;SDS011;41413;52.770;6.892;2023-08-06T12:37:34;115.85;;;111.20;;
52888;SDS011;41413;52.770;6.892;2023-08-06T12:40:01;129.07;;;123.95;;
52888;SDS011;41413;52.770;6.892;2023-08-06T12:42:47;104.72;;;100.65;;
52888;SDS011;41413;52.770;6.892;2023-08-06T12:45:15;106.93;;;102.80;;
52888;SDS011;41413;52.770;6.892;2023-08-06T12:47:42;89.68;;;86.13;;
52888;SDS011;41413;52.770;6.892;2023-08-06T12:50:09;104.93;;;101.03;;
52888;SDS011;41413;52.770;6.892;2023-08-06T12:52:36;95.72;;;92.10;;
52888;SDS011;41413;52.770;6.892;2023-08-06T12:55:02;98.32;;;94.35;;
52888;SDS011;41413;52.770;6.892;2023-08-06T12:57:30;102.82;;;98.88;;
52888;SDS011;41413;52.770;6.892;2023-08-06T13:00:16;109.57;;;105.25;;
52888;SDS011;41413;52.770;6.892;2023-08-06T13:02:43;104.38;;;100.32;;
52888;SDS011;41413;52.770;6.892;2023-08-06T13:05:10;101.65;;;97.82;;
52888;SDS011;41413;52.770;6.892;2023-08-06T13:07:37;111.88;;;107.60;;
52888;SDS011;41413;52.770;6.892;2023-08-06T13:10:04;82.13;;;78.93;;
52888;SDS011;41413;52.770;6.892;2023-08-06T13:12:31;102.10;;;98.18;;
52888;SDS011;41413;52.770;6.892;2023-08-06T13:14:58;75.05;;;72.07;;
52888;SDS011;41413;52.770;6.892;2023-08-06T13:17:25;80.35;;;77.25;;
52888;SDS011;41413;52.770;6.892;2023-08-06T13:19:53;72.03;;;69.13;;
52888;SDS011;41413;52.770;6.892;2023-08-06T13:22:20;73.88;;;71.10;;
52888;SDS011;41413;52.770;6.892;2023-08-06T13:24:47;82.03;;;78.88;;
52888;SDS011;41413;52.770;6.892;2023-08-06T13:27:13;89.57;;;86.10;;
52888;SDS011;41413;52.770;6.892;2023-08-06T13:29:40;75.85;;;72.85;;
52888;SDS011;41413;52.770;6.892;2023-08-06T13:32:07;82.35;;;79.18;;
52888;SDS011;41413;52.770;6.892;2023-08-06T13:34:34;75.63;;;72.75;;
52888;SDS011;41413;52.770;6.892;2023-08-06T13:37:00;78.45;;;75.35;;
52888;SDS011;41413;52.770;6.892;2023-08-06T13:39:28;89.70;;;85.97;;
52888;SDS011;41413;52.770;6.892;2023-08-06T13:41:55;75.47;;;72.25;;
52888;SDS011;41413;52.770;6.892;2023-08-06T13:44:22;95.45;;;91.78;;
52888;SDS011;41413;52.770;6.892;2023-08-06T13:46:49;96.07;;;91.63;;
52888;SDS011;41413;52.770;6.892;2023-08-06T13:49:15;101.13;;;97.07;;
52888;SDS011;41413;52.770;6.892;2023-08-06T13:51:42;106.65;;;102.32;;
52888;SDS011;41413;52.770;6.892;2023-08-06T13:54:09;80.97;;;77.78;;
52888;SDS011;41413;52.770;6.892;2023-08-06T13:56:36;109.70;;;105.18;;
52888;SDS011;41413;52.770;6.892;2023-08-06T13:59:04;96.70;;;92.88;;
52888;SDS011;41413;52.770;6.892;2023-08-06T14:01:31;120.85;;;115.70;;
52888;SDS011;41413;52.770;6.892;2023-08-06T14:04:16;118.43;;;113.82;;
52888;SDS011;41413;52.770;6.892;2023-08-06T14:06:42;125.75;;;120.70;;
52888;SDS011;41413;52.770;6.892;2023-08-06T14:09:09;118.18;;;113.57;;
52888;SDS011;41413;52.770;6.892;2023-08-06T14:11:38;96.03;;;92.32;;